createdAt,value
2023-04-20T00:00:12.831Z,4.40
2023-04-20T00:02:42.281Z,4.50
2023-04-20T00:08:18.244Z,4.20
2023-04-20T00:10:46.541Z,4.80
2023-04-20T00:13:14.895Z,5.30
2023-04-20T00:15:43.012Z,5.40
2023-04-20T00:18:11.460Z,4.60
2023-04-20T00:20:39.712Z,4.90
2023-04-20T00:23:07.872Z,4.10
2023-04-20T00:25:36.566Z,4.50
2023-04-20T00:28:05.227Z,4.20
2023-04-20T00:30:35.029Z,4.10
2023-04-20T00:33:03.404Z,4.00
2023-04-20T00:35:32.519Z,5.10
2023-04-20T00:38:00.902Z,4.30
2023-04-20T00:40:29.274Z,4.70
2023-04-20T00:42:57.919Z,4.20
2023-04-20T00:45:26.355Z,4.80
2023-04-20T00:47:54.550Z,4.90
2023-04-20T00:50:22.818Z,3.90
2023-04-20T00:52:51.092Z,3.80
2023-04-20T00:55:19.849Z,3.80
2023-04-20T00:57:48.869Z,5.10
2023-04-20T01:00:17.151Z,4.20
2023-04-20T01:02:46.064Z,4.00
2023-04-20T01:05:14.407Z,4.70
2023-04-20T01:07:42.604Z,4.20
2023-04-20T01:10:10.905Z,4.60
2023-04-20T01:12:41.239Z,5.10
2023-04-20T01:15:09.721Z,4.20
2023-04-20T01:17:41.199Z,4.50
2023-04-20T01:20:12.709Z,4.20
2023-04-20T01:22:47.681Z,4.20
2023-04-20T01:25:16.378Z,4.60
2023-04-20T01:27:44.589Z,4.30
2023-04-20T01:30:12.963Z,5.70
2023-04-20T01:32:41.498Z,4.40
2023-04-20T01:35:10.577Z,5.00
2023-04-20T01:37:39.973Z,5.10
2023-04-20T01:40:11.962Z,4.80
2023-04-20T01:42:40.554Z,3.50
2023-04-20T01:45:09.005Z,3.80
2023-04-20T01:47:37.559Z,3.80
2023-04-20T01:50:08.208Z,4.70
2023-04-20T01:52:36.483Z,4.30
2023-04-20T01:55:05.036Z,4.80
2023-04-20T01:57:33.393Z,4.70
2023-04-20T02:00:01.623Z,6.00
2023-04-20T02:02:30.470Z,4.90
2023-04-20T02:04:58.639Z,5.00
2023-04-20T02:07:26.942Z,5.00
2023-04-20T02:09:55.296Z,4.30
2023-04-20T02:12:23.541Z,4.30
2023-04-20T02:14:52.092Z,5.30
2023-04-20T02:17:22.877Z,5.10
2023-04-20T02:19:51.012Z,5.50
2023-04-20T02:22:19.104Z,4.50
2023-04-20T02:24:47.192Z,5.90
2023-04-20T02:27:15.815Z,5.10
2023-04-20T02:29:44.204Z,4.90
2023-04-20T02:32:15.306Z,3.80
2023-04-20T02:34:43.432Z,3.90
2023-04-20T02:37:11.556Z,4.90
2023-04-20T02:39:39.792Z,4.50
2023-04-20T02:42:08.031Z,5.60
2023-04-20T02:44:36.700Z,6.10
2023-04-20T02:47:04.972Z,5.20
2023-04-20T02:49:33.794Z,4.60
2023-04-20T02:52:02.029Z,4.30
2023-04-20T02:54:30.632Z,4.10
2023-04-20T02:56:58.986Z,4.50
2023-04-20T02:59:27.936Z,4.90
2023-04-20T03:02:02.032Z,4.70
2023-04-20T03:04:31.300Z,4.50
2023-04-20T03:07:16.696Z,4.60
2023-04-20T03:09:45.032Z,5.30
2023-04-20T03:12:26.316Z,4.70
2023-04-20T03:15:23.586Z,4.60
2023-04-20T03:17:59.172Z,4.30
2023-04-20T03:20:27.709Z,4.40
2023-04-20T03:22:56.126Z,4.00
2023-04-20T03:25:25.877Z,3.80
2023-04-20T03:28:00.972Z,4.00
2023-04-20T03:30:29.978Z,4.00
2023-04-20T03:33:17.110Z,4.20
2023-04-20T03:35:45.402Z,3.90
2023-04-20T03:38:13.663Z,3.40
2023-04-20T03:40:41.774Z,4.40
2023-04-20T03:43:12.277Z,4.70
2023-04-20T03:45:40.528Z,4.70
2023-04-20T03:48:09.069Z,4.00
2023-04-20T03:50:38.206Z,4.30
2023-04-20T03:53:06.417Z,4.10
2023-04-20T03:55:34.711Z,4.40
2023-04-20T04:00:44.544Z,4.60
2023-04-20T04:03:13.360Z,4.40
2023-04-20T04:05:41.994Z,4.60
2023-04-20T04:08:10.300Z,4.40
2023-04-20T04:10:38.864Z,4.40
2023-04-20T04:13:07.063Z,5.60
2023-04-20T04:15:35.332Z,5.00
2023-04-20T04:18:06.711Z,4.00
2023-04-20T04:20:36.548Z,5.00
2023-04-20T04:23:05.466Z,4.50
2023-04-20T04:25:54.267Z,5.10
2023-04-20T04:28:24.893Z,4.30
2023-04-20T04:31:28.794Z,4.60
2023-04-20T04:34:02.356Z,4.90
2023-04-20T04:36:36.912Z,5.00
2023-04-20T04:39:06.224Z,4.80
2023-04-20T04:41:34.483Z,4.60
2023-04-20T04:44:16.859Z,5.60
2023-04-20T04:46:45.849Z,5.40
2023-04-20T04:49:14.354Z,4.90
2023-04-20T04:51:42.539Z,4.30
2023-04-20T04:54:10.861Z,5.00
2023-04-20T04:56:38.988Z,5.50
2023-04-20T04:59:07.228Z,5.30
2023-04-20T05:01:35.411Z,4.80
2023-04-20T05:04:03.825Z,6.60
2023-04-20T05:06:32.846Z,5.70
2023-04-20T05:09:01.029Z,5.60
2023-04-20T05:11:29.497Z,5.10
2023-04-20T05:13:57.802Z,5.70
2023-04-20T05:16:26.005Z,5.70
2023-04-20T05:18:54.247Z,6.00
2023-04-20T05:21:22.986Z,6.20
2023-04-20T05:23:51.080Z,5.60
2023-04-20T05:26:19.173Z,6.00
2023-04-20T05:28:47.606Z,4.70
2023-04-20T05:31:16.028Z,6.40
2023-04-20T05:33:44.114Z,5.00
2023-04-20T05:36:12.252Z,6.80
2023-04-20T05:38:40.536Z,5.10
2023-04-20T05:41:08.673Z,4.70
2023-04-20T05:43:36.963Z,5.00
2023-04-20T05:46:05.612Z,6.00
2023-04-20T05:48:34.133Z,5.90
2023-04-20T05:51:02.473Z,6.20
2023-04-20T05:53:31.384Z,5.80
2023-04-20T05:55:59.658Z,5.50
2023-04-20T05:58:27.955Z,5.90
2023-04-20T06:00:57.029Z,5.10
2023-04-20T06:03:26.029Z,5.50
2023-04-20T06:05:54.466Z,5.10
2023-04-20T06:08:22.550Z,6.20
2023-04-20T06:10:55.795Z,5.40
2023-04-20T06:13:24.409Z,7.30
2023-04-20T06:15:55.422Z,5.50
2023-04-20T06:20:52.406Z,5.60
2023-04-20T06:23:21.413Z,5.00
2023-04-20T06:25:49.588Z,7.20
2023-04-20T06:28:17.769Z,6.10
2023-04-20T06:30:46.042Z,5.10
2023-04-20T06:33:17.335Z,5.90
2023-04-20T06:35:45.780Z,6.30
2023-04-20T06:38:14.012Z,5.90
2023-04-20T06:40:42.276Z,6.20
2023-04-20T06:43:10.690Z,5.70
2023-04-20T06:45:40.320Z,6.10
2023-04-20T06:48:20.233Z,5.80
2023-04-20T06:50:56.715Z,4.20
2023-04-20T06:53:24.936Z,5.70
2023-04-20T06:55:56.188Z,5.10
2023-04-20T06:58:24.454Z,5.50
2023-04-20T07:00:52.874Z,5.10
2023-04-20T07:03:21.345Z,5.20
2023-04-20T07:05:49.848Z,4.80
2023-04-20T07:08:18.098Z,4.50
2023-04-20T07:10:46.406Z,5.50
2023-04-20T07:13:14.737Z,5.00
2023-04-20T07:15:45.281Z,5.80
2023-04-20T07:18:13.434Z,5.20
2023-04-20T07:20:41.807Z,4.80
2023-04-20T07:23:09.994Z,5.50
2023-04-20T07:25:38.348Z,5.50
2023-04-20T07:28:06.602Z,5.50
2023-04-20T07:30:34.717Z,5.50
2023-04-20T07:33:03.160Z,5.20
2023-04-20T07:35:31.364Z,5.20
2023-04-20T07:37:59.596Z,6.60
2023-04-20T07:40:27.834Z,5.30
2023-04-20T07:42:56.018Z,5.00
2023-04-20T07:45:24.428Z,5.80
2023-04-20T07:47:54.304Z,5.90
2023-04-20T07:50:22.490Z,6.20
2023-04-20T07:52:50.831Z,7.50
2023-04-20T07:55:19.079Z,6.30
2023-04-20T07:57:47.380Z,4.70
2023-04-20T08:00:16.146Z,7.40
2023-04-20T08:02:46.981Z,7.20
2023-04-20T08:05:15.538Z,6.50
2023-04-20T08:07:44.222Z,5.00
2023-04-20T08:10:12.953Z,5.00
2023-04-20T08:12:42.216Z,4.30
2023-04-20T08:15:11.072Z,4.50
2023-04-20T08:17:39.566Z,6.90
2023-04-20T08:20:08.349Z,5.50
2023-04-20T08:22:37.934Z,4.70
2023-04-20T08:25:06.194Z,7.10
2023-04-20T08:27:35.176Z,6.70
2023-04-20T08:30:04.548Z,6.20
2023-04-20T08:32:33.446Z,6.60
2023-04-20T08:35:01.650Z,6.20
2023-04-20T08:37:32.522Z,6.50
2023-04-20T08:40:01.202Z,7.10
2023-04-20T08:42:29.829Z,6.60
2023-04-20T08:44:58.736Z,7.00
2023-04-20T08:47:28.126Z,6.80
2023-04-20T08:49:56.497Z,7.50
2023-04-20T08:52:24.845Z,7.50
2023-04-20T08:54:57.267Z,8.50
2023-04-20T08:57:26.382Z,7.70
2023-04-20T08:59:54.759Z,7.20
2023-04-20T09:02:23.943Z,7.40
2023-04-20T09:05:02.848Z,7.10
2023-04-20T09:07:32.151Z,7.40
2023-04-20T09:10:00.820Z,6.90
2023-04-20T09:12:29.328Z,6.30
2023-04-20T09:14:57.640Z,7.10
2023-04-20T09:17:36.310Z,6.90
2023-04-20T09:20:08.688Z,6.30
2023-04-20T09:22:37.585Z,6.30
2023-04-20T09:25:15.344Z,6.40
2023-04-20T09:27:43.755Z,6.50
2023-04-20T09:30:12.372Z,5.30
2023-04-20T09:32:40.791Z,6.40
2023-04-20T09:35:09.447Z,6.60
2023-04-20T09:37:47.513Z,6.40
2023-04-20T09:40:16.711Z,5.10
2023-04-20T09:42:44.980Z,6.40
2023-04-20T09:45:14.807Z,5.20
2023-04-20T09:47:44.501Z,5.50
2023-04-20T09:50:24.794Z,4.60
2023-04-20T09:52:57.732Z,6.70
2023-04-20T09:55:26.781Z,6.30
2023-04-20T09:57:54.927Z,6.40
2023-04-20T10:00:23.477Z,5.90
2023-04-20T10:02:52.166Z,5.50
2023-04-20T10:05:20.753Z,6.00
2023-04-20T10:07:59.553Z,5.80
2023-04-20T10:10:27.769Z,5.60
2023-04-20T10:12:58.686Z,6.10
2023-04-20T10:15:39.911Z,6.10
2023-04-20T10:18:25.069Z,5.90
2023-04-20T10:21:05.460Z,6.40
2023-04-20T10:23:34.182Z,5.10
2023-04-20T10:26:03.937Z,5.10
2023-04-20T10:28:40.780Z,4.70
2023-04-20T10:31:13.065Z,6.60
2023-04-20T10:33:55.062Z,6.20
2023-04-20T10:36:37.256Z,6.20
2023-04-20T10:39:19.848Z,6.20
2023-04-20T10:41:55.792Z,6.90
2023-04-20T10:44:26.615Z,6.20
2023-04-20T10:46:55.297Z,5.20
2023-04-20T10:49:30.297Z,4.10
2023-04-20T10:51:59.157Z,5.00
2023-04-20T10:54:29.008Z,6.10
2023-04-20T10:56:57.304Z,5.80
2023-04-20T10:59:25.611Z,4.30
2023-04-20T11:01:55.596Z,5.20
2023-04-20T11:04:33.596Z,6.20
2023-04-20T11:07:09.104Z,6.60
2023-04-20T11:09:38.742Z,5.30
2023-04-20T11:12:12.252Z,5.60
2023-04-20T11:15:07.314Z,5.70
2023-04-20T11:17:36.723Z,5.10
2023-04-20T11:20:09.231Z,5.20
2023-04-20T11:22:41.374Z,6.10
2023-04-20T11:25:10.933Z,6.80
2023-04-20T11:27:39.989Z,5.90
2023-04-20T11:30:10.125Z,5.80
2023-04-20T11:32:39.351Z,6.10
2023-04-20T11:35:09.579Z,5.60
2023-04-20T11:37:51.579Z,5.90
2023-04-20T11:40:19.967Z,4.90
2023-04-20T11:42:48.147Z,5.30
2023-04-20T11:45:16.606Z,5.40
2023-04-20T11:47:45.953Z,4.70
2023-04-20T11:50:14.610Z,5.00
2023-04-20T11:52:43.036Z,5.30
2023-04-20T11:55:11.655Z,4.10
2023-04-20T11:57:39.771Z,5.10
2023-04-20T12:00:08.946Z,6.20
2023-04-20T12:02:43.317Z,5.00
2023-04-20T12:05:12.146Z,5.90
2023-04-20T12:07:40.557Z,4.60
2023-04-20T12:10:09.127Z,4.40
2023-04-20T12:12:38.960Z,4.30
2023-04-20T12:15:07.905Z,5.00
2023-04-20T12:17:36.246Z,5.20
2023-04-20T12:20:09.027Z,4.80
2023-04-20T12:22:37.575Z,4.90
2023-04-20T12:25:06.750Z,6.90
2023-04-20T12:27:36.103Z,5.60
2023-04-20T12:30:04.521Z,4.60
2023-04-20T12:32:33.595Z,5.20
2023-04-20T12:35:01.899Z,5.20
2023-04-20T12:37:31.015Z,6.00
2023-04-20T12:39:59.333Z,5.70
2023-04-20T12:42:27.662Z,4.90
2023-04-20T12:44:56.391Z,5.30
2023-04-20T12:47:24.535Z,4.70
2023-04-20T12:49:52.788Z,4.60
2023-04-20T12:52:21.268Z,3.70
2023-04-20T12:54:50.048Z,5.50
2023-04-20T12:57:18.296Z,6.20
2023-04-20T12:59:48.828Z,4.60
2023-04-20T13:02:17.847Z,5.50
2023-04-20T13:04:46.960Z,5.70
2023-04-20T13:07:15.597Z,5.40
2023-04-20T13:09:44.017Z,5.40
2023-04-20T13:12:13.093Z,5.00
2023-04-20T13:14:41.145Z,5.00
2023-04-20T13:17:09.344Z,6.40
2023-04-20T13:19:37.548Z,5.30
2023-04-20T13:22:05.665Z,5.00
2023-04-20T13:24:34.046Z,5.80
2023-04-20T13:27:02.276Z,5.20
2023-04-20T13:29:30.711Z,5.30
2023-04-20T13:31:58.891Z,4.40
2023-04-20T13:34:27.070Z,4.00
2023-04-20T13:36:55.376Z,4.10
2023-04-20T13:39:24.263Z,4.00
2023-04-20T13:41:52.675Z,4.70
2023-04-20T13:44:21.416Z,4.30
2023-04-20T13:46:50.043Z,4.50
2023-04-20T13:49:18.326Z,4.10
2023-04-20T13:51:46.492Z,4.10
2023-04-20T13:54:14.714Z,3.80
2023-04-20T13:56:42.856Z,5.00
2023-04-20T13:59:11.242Z,4.20
2023-04-20T14:01:39.465Z,4.50
2023-04-20T14:04:09.374Z,4.00
2023-04-20T14:06:38.270Z,5.30
2023-04-20T14:09:06.456Z,5.80
2023-04-20T14:11:34.660Z,4.50
2023-04-20T14:14:02.941Z,4.90
2023-04-20T14:16:31.468Z,4.90
2023-04-20T14:18:59.579Z,4.60
2023-04-20T14:21:28.023Z,4.50
2023-04-20T14:23:56.350Z,5.60
2023-04-20T14:26:24.649Z,4.20
2023-04-20T14:28:53.310Z,4.90
2023-04-20T14:31:21.494Z,4.60
2023-04-20T14:33:49.592Z,3.50
2023-04-20T14:36:17.943Z,4.70
2023-04-20T14:38:46.351Z,5.20
2023-04-20T14:41:16.240Z,4.80
2023-04-20T14:43:44.515Z,4.50
2023-04-20T14:46:13.125Z,5.60
2023-04-20T14:48:41.760Z,5.60
2023-04-20T14:51:09.907Z,6.20
2023-04-20T14:53:37.991Z,5.70
2023-04-20T14:56:06.317Z,5.00
2023-04-20T14:58:36.134Z,6.00
2023-04-20T15:01:04.845Z,5.80
2023-04-20T15:03:33.773Z,5.90
2023-04-20T15:06:02.293Z,4.90
2023-04-20T15:08:30.858Z,5.00
2023-04-20T15:10:59.028Z,5.30
2023-04-20T15:13:27.497Z,5.50
2023-04-20T15:15:56.019Z,5.00
2023-04-20T15:18:24.277Z,5.00
2023-04-20T15:20:52.759Z,5.10
2023-04-20T15:23:21.415Z,4.70
2023-04-20T15:25:49.704Z,4.30
2023-04-20T15:28:18.518Z,4.70
2023-04-20T15:30:47.168Z,5.10
2023-04-20T15:33:15.436Z,4.00
2023-04-20T15:35:43.760Z,4.20
2023-04-20T15:38:11.994Z,4.90
2023-04-20T15:40:40.260Z,4.60
2023-04-20T15:43:08.557Z,4.70
2023-04-20T15:45:36.784Z,4.70
2023-04-20T15:48:05.383Z,4.60
2023-04-20T15:50:33.817Z,5.40
2023-04-20T15:53:02.284Z,4.70
2023-04-20T15:55:34.594Z,5.40
2023-04-20T15:58:02.899Z,4.50
2023-04-20T16:00:31.560Z,4.80
2023-04-20T16:03:01.722Z,4.40
2023-04-20T16:05:30.173Z,5.50
2023-04-20T16:07:58.659Z,5.20
2023-04-20T16:10:27.604Z,5.00
2023-04-20T16:12:56.382Z,5.00
2023-04-20T16:15:24.855Z,5.10
2023-04-20T16:17:53.760Z,5.00
2023-04-20T16:20:22.264Z,4.90
2023-04-20T16:22:50.730Z,5.20
2023-04-20T16:25:23.185Z,5.20
2023-04-20T16:27:51.836Z,5.30
2023-04-20T16:30:20.089Z,5.30
2023-04-20T16:32:48.379Z,5.20
2023-04-20T16:35:16.609Z,4.60
2023-04-20T16:37:45.465Z,5.10
2023-04-20T16:40:13.670Z,5.60
2023-04-20T16:42:42.007Z,5.70
2023-04-20T16:45:10.239Z,5.40
2023-04-20T16:47:39.392Z,5.80
2023-04-20T16:50:07.957Z,5.60
2023-04-20T16:52:36.321Z,4.90
2023-04-20T16:55:04.921Z,6.00
2023-04-20T16:57:33.119Z,5.80
2023-04-20T17:00:01.252Z,6.40
2023-04-20T17:02:33.198Z,6.80
2023-04-20T17:05:01.753Z,5.90
2023-04-20T17:07:30.173Z,7.20
2023-04-20T17:09:58.318Z,6.50
2023-04-20T17:12:26.484Z,6.00
2023-04-20T17:14:55.463Z,6.70
2023-04-20T17:17:23.718Z,5.50
2023-04-20T17:19:51.859Z,6.60
2023-04-20T17:22:20.167Z,7.50
2023-04-20T17:24:48.488Z,6.40
2023-04-20T17:27:16.674Z,5.70
2023-04-20T17:29:45.271Z,6.20
2023-04-20T17:32:13.651Z,5.50
2023-04-20T17:34:44.937Z,5.80
2023-04-20T17:37:13.404Z,5.30
2023-04-20T17:39:41.537Z,5.70
2023-04-20T17:42:10.903Z,6.00
2023-04-20T17:44:39.906Z,5.80
2023-04-20T17:47:09.604Z,6.10
2023-04-20T17:49:37.750Z,7.00
2023-04-20T17:52:06.333Z,5.60
2023-04-20T17:54:34.624Z,5.40
2023-04-20T17:57:02.804Z,5.70
2023-04-20T17:59:31.343Z,5.20
2023-04-20T18:01:59.599Z,6.00
2023-04-20T18:04:28.339Z,5.70
2023-04-20T18:06:56.649Z,5.80
2023-04-20T18:09:24.861Z,5.20
2023-04-20T18:11:53.328Z,5.10
2023-04-20T18:14:21.511Z,5.90
2023-04-20T18:16:54.921Z,5.30
2023-04-20T18:19:23.233Z,4.50
2023-04-20T18:21:51.436Z,5.30
2023-04-20T18:24:19.698Z,4.80
2023-04-20T18:26:47.990Z,5.30
2023-04-20T18:29:16.253Z,5.80
2023-04-20T18:31:50.045Z,4.80
2023-04-20T18:34:18.406Z,5.30
2023-04-20T18:36:46.681Z,5.80
2023-04-20T18:39:15.239Z,9.10
2023-04-20T18:41:43.339Z,10.70
2023-04-20T18:44:11.457Z,11.50
2023-04-20T18:46:39.672Z,12.90
2023-04-20T18:49:07.988Z,12.60
2023-04-20T18:51:36.282Z,10.80
2023-04-20T18:54:04.604Z,11.70
2023-04-20T18:56:33.925Z,11.10
2023-04-20T18:59:03.334Z,10.20
2023-04-20T19:01:33.381Z,11.20
2023-04-20T19:04:01.846Z,11.60
2023-04-20T19:06:31.317Z,10.80
2023-04-20T19:08:59.542Z,10.10
2023-04-20T19:11:29.066Z,9.90
2023-04-20T19:13:57.370Z,10.10
2023-04-20T19:16:25.779Z,8.80
2023-04-20T19:18:54.043Z,9.00
2023-04-20T19:21:22.257Z,9.50
2023-04-20T19:23:50.578Z,10.10
2023-04-20T19:26:18.893Z,8.10
2023-04-20T19:28:47.140Z,9.40
2023-04-20T19:31:16.131Z,7.30
2023-04-20T19:33:44.866Z,7.90
2023-04-20T19:36:13.373Z,7.40
2023-04-20T19:38:41.767Z,7.80
2023-04-20T19:41:10.170Z,9.80
2023-04-20T19:43:38.350Z,11.90
2023-04-20T19:46:09.759Z,8.50
2023-04-20T19:48:38.131Z,7.20
2023-04-20T19:51:06.760Z,6.60
2023-04-20T19:53:34.978Z,6.30
2023-04-20T19:56:06.195Z,7.70
2023-04-20T19:58:34.648Z,7.60
2023-04-20T20:01:03.344Z,6.70
2023-04-20T20:03:32.843Z,7.00
2023-04-20T20:06:01.438Z,7.30
2023-04-20T20:08:30.323Z,7.70
2023-04-20T20:10:58.420Z,7.30
2023-04-20T20:13:26.870Z,7.70
2023-04-20T20:15:55.044Z,6.40
2023-04-20T20:18:24.436Z,7.40
2023-04-20T20:20:52.614Z,7.80
2023-04-20T20:23:21.628Z,6.90
2023-04-20T20:25:49.783Z,7.60
2023-04-20T20:28:18.855Z,6.30
2023-04-20T20:30:47.078Z,7.80
2023-04-20T20:33:15.433Z,6.60
2023-04-20T20:35:43.583Z,7.70
2023-04-20T20:38:11.744Z,7.00
2023-04-20T20:40:40.164Z,7.50
2023-04-20T20:43:08.738Z,7.90
2023-04-20T20:45:37.367Z,8.30
2023-04-20T20:48:05.733Z,8.30
2023-04-20T20:50:34.082Z,7.10
2023-04-20T20:53:02.279Z,6.50
2023-04-20T20:55:30.484Z,6.50
2023-04-20T20:57:58.595Z,6.40
2023-04-20T21:00:27.152Z,6.80
2023-04-20T21:02:57.261Z,6.20
2023-04-20T21:05:25.588Z,5.50
2023-04-20T21:07:53.772Z,5.60
2023-04-20T21:10:21.928Z,6.00
2023-04-20T21:12:50.419Z,5.50
2023-04-20T21:15:18.699Z,5.30
2023-04-20T21:17:46.963Z,6.30
2023-04-20T21:20:15.372Z,5.20
2023-04-20T21:22:43.578Z,5.60
2023-04-20T21:25:11.796Z,4.70
2023-04-20T21:27:40.302Z,6.20
2023-04-20T21:30:09.016Z,5.10
2023-04-20T21:32:37.402Z,5.60
2023-04-20T21:35:06.255Z,5.00
2023-04-20T21:37:34.454Z,5.40
2023-04-20T21:40:02.592Z,4.90
2023-04-20T21:42:31.245Z,4.20
2023-04-20T21:44:59.689Z,4.50
2023-04-20T21:47:27.850Z,4.90
2023-04-20T21:49:56.065Z,4.60
2023-04-20T21:52:24.979Z,4.80
2023-04-20T21:54:53.216Z,4.90
2023-04-20T21:57:21.423Z,5.10
2023-04-20T21:59:49.517Z,4.10
2023-04-20T22:02:17.712Z,5.50
2023-04-20T22:04:46.352Z,4.30
2023-04-20T22:07:17.709Z,4.20
2023-04-20T22:09:45.831Z,4.90
2023-04-20T22:12:14.045Z,5.40
2023-04-20T22:14:42.147Z,4.70
2023-04-20T22:17:11.969Z,5.20
2023-04-20T22:19:40.385Z,5.00
2023-04-20T22:22:08.483Z,4.60
2023-04-20T22:24:37.059Z,4.60
2023-04-20T22:27:05.465Z,4.60
2023-04-20T22:29:33.750Z,5.00
2023-04-20T22:32:01.866Z,5.00
2023-04-20T22:34:30.152Z,4.50
2023-04-20T22:36:58.241Z,5.40
2023-04-20T22:39:26.347Z,5.30
2023-04-20T22:41:54.530Z,4.90
2023-04-20T22:44:22.759Z,4.80
2023-04-20T22:46:51.382Z,5.10
2023-04-20T22:49:20.166Z,5.70
2023-04-20T22:51:48.430Z,5.30
2023-04-20T22:54:16.628Z,5.00
2023-04-20T22:56:44.782Z,4.60
2023-04-20T22:59:12.899Z,5.70
2023-04-20T23:01:41.051Z,5.20
2023-04-20T23:04:09.414Z,5.30
2023-04-20T23:06:37.955Z,5.40
2023-04-20T23:09:08.428Z,6.30
2023-04-20T23:11:38.976Z,4.70
2023-04-20T23:14:08.231Z,4.70
2023-04-20T23:16:36.368Z,4.80
2023-04-20T23:19:04.541Z,4.80
2023-04-20T23:21:33.030Z,4.70
2023-04-20T23:24:01.212Z,4.90
2023-04-20T23:26:29.498Z,5.30
2023-04-20T23:28:57.815Z,4.80
2023-04-20T23:31:26.268Z,5.40
2023-04-20T23:33:54.531Z,4.70
2023-04-20T23:36:22.634Z,4.90
2023-04-20T23:38:50.849Z,5.30
2023-04-20T23:41:19.066Z,4.80
2023-04-20T23:43:47.215Z,5.40
2023-04-20T23:46:15.409Z,4.80
2023-04-20T23:48:43.721Z,4.90
2023-04-20T23:51:11.951Z,4.40
2023-04-20T23:53:40.266Z,4.70
2023-04-20T23:56:08.539Z,4.50
2023-04-20T23:58:37.742Z,4.70
